createdAt,value
2018-02-01T00:00:30.750Z,17.56
2018-02-01T00:01:39.965Z,17.62
2018-02-01T00:02:48.655Z,17.58
2018-02-01T00:03:57.916Z,17.58
2018-02-01T00:05:06.597Z,17.58
2018-02-01T00:06:15.282Z,17.64
2018-02-01T00:07:24.228Z,17.63
2018-02-01T00:08:32.917Z,17.59
2018-02-01T00:09:42.131Z,17.56
2018-02-01T00:10:51.390Z,17.59
2018-02-01T00:12:00.606Z,17.62
2018-02-01T00:13:09.288Z,17.62
2018-02-01T00:14:17.973Z,17.55
2018-02-01T00:15:26.920Z,17.55
2018-02-01T00:16:36.174Z,17.55
2018-02-01T00:17:44.856Z,17.56
2018-02-01T00:18:53.541Z,17.55
2018-02-01T00:20:02.493Z,17.58
2018-02-01T00:21:11.707Z,17.54
2018-02-01T00:22:20.391Z,17.59
2018-02-01T00:23:29.340Z,17.54
2018-02-01T00:24:38.819Z,17.52
2018-02-01T00:25:47.502Z,17.54
2018-02-01T00:26:56.449Z,17.51
2018-02-01T00:28:05.668Z,17.54
2018-02-01T00:29:14.876Z,17.52
2018-02-01T00:30:23.555Z,17.48
2018-02-01T00:31:32.502Z,17.58
2018-02-01T00:32:41.446Z,17.54
2018-02-01T00:33:50.130Z,17.54
2018-02-01T00:34:59.077Z,17.52
2018-02-01T00:36:08.286Z,17.52
2018-02-01T00:37:16.968Z,17.49
2018-02-01T00:38:25.954Z,17.54
2018-02-01T00:39:34.900Z,17.56
2018-02-01T00:40:43.585Z,17.55
2018-02-01T00:41:52.531Z,17.51
2018-02-01T00:43:01.213Z,17.52
2018-02-01T00:44:09.897Z,17.52
2018-02-01T00:45:18.846Z,17.51
2018-02-01T00:46:28.062Z,17.54
2018-02-01T00:47:37.537Z,17.54
2018-02-01T00:48:46.748Z,17.55
2018-02-01T00:49:56.229Z,17.51
2018-02-01T00:51:05.179Z,17.49
2018-02-01T00:52:13.864Z,17.52
2018-02-01T00:53:23.078Z,17.52
2018-02-01T00:54:32.292Z,17.52
2018-02-01T00:55:40.972Z,17.51
2018-02-01T00:56:49.655Z,17.49
2018-02-01T00:57:58.603Z,17.54
2018-02-01T00:59:08.091Z,17.52
2018-02-01T01:00:17.040Z,17.49
2018-02-01T01:01:26.253Z,17.51
2018-02-01T01:02:35.467Z,17.52
2018-02-01T01:03:44.408Z,17.51
2018-02-01T01:04:53.088Z,17.41
2018-02-01T01:06:02.036Z,17.49
2018-02-01T01:07:11.252Z,17.49
2018-02-01T01:08:20.197Z,17.49
2018-02-01T01:09:29.409Z,17.46
2018-02-01T01:10:38.087Z,17.44
2018-02-01T01:11:47.033Z,17.46
2018-02-01T01:12:55.980Z,17.49
2018-02-01T01:14:05.472Z,17.4
2018-02-01T01:15:14.407Z,17.49
2018-02-01T01:16:23.624Z,17.46
2018-02-01T01:17:32.308Z,17.43
2018-02-01T01:18:41.253Z,17.41
2018-02-01T01:19:49.938Z,17.51
2018-02-01T01:20:59.149Z,17.43
2018-02-01T01:22:08.096Z,17.51
2018-02-01T01:23:17.047Z,17.44
2018-02-01T01:24:25.996Z,17.43
2018-02-01T01:25:34.678Z,17.41
2018-02-01T01:26:43.358Z,17.51
2018-02-01T01:27:52.303Z,17.4
2018-02-01T01:29:01.254Z,17.46
2018-02-01T01:30:09.940Z,17.43
2018-02-01T01:31:18.881Z,17.43
2018-02-01T01:32:27.827Z,17.41
2018-02-01T01:33:36.511Z,17.44
2018-02-01T01:34:45.731Z,17.4
2018-02-01T01:35:54.944Z,17.41
2018-02-01T01:37:03.891Z,17.4
2018-02-01T01:38:12.575Z,17.51
2018-02-01T01:39:21.524Z,17.52
2018-02-01T01:40:30.468Z,17.46
2018-02-01T01:41:39.414Z,17.48
2018-02-01T01:42:48.097Z,17.4
2018-02-01T01:43:57.042Z,17.46
2018-02-01T01:45:05.724Z,17.49
2018-02-01T01:46:14.940Z,17.46
2018-02-01T01:47:23.885Z,17.43
2018-02-01T01:48:32.839Z,17.46
2018-02-01T01:49:41.520Z,17.4
2018-02-01T01:50:50.732Z,17.41
2018-02-01T01:51:59.724Z,17.43
2018-02-01T01:53:08.367Z,17.44
2018-02-01T01:54:17.046Z,17.43
2018-02-01T01:55:26.263Z,17.46
2018-02-01T01:56:35.482Z,17.4
2018-02-01T01:57:44.694Z,17.4
2018-02-01T01:58:53.903Z,17.46
2018-02-01T02:00:02.853Z,17.41
2018-02-01T02:01:11.799Z,17.4
2018-02-01T02:02:20.481Z,17.4
2018-02-01T02:03:29.435Z,17.46
2018-02-01T02:04:38.388Z,17.41
2018-02-01T02:05:47.336Z,17.4
2018-02-01T02:06:56.018Z,17.41
2018-02-01T02:08:05.229Z,17.44
2018-02-01T02:09:14.172Z,17.37
2018-02-01T02:10:23.119Z,17.36
2018-02-01T02:11:32.067Z,17.43
2018-02-01T02:12:41.016Z,17.38
2018-02-01T02:13:49.700Z,17.41
2018-02-01T02:14:58.652Z,17.34
2018-02-01T02:16:07.866Z,17.38
2018-02-01T02:17:16.550Z,17.36
2018-02-01T02:18:25.763Z,17.4
2018-02-01T02:19:34.976Z,17.34
2018-02-01T02:20:43.657Z,17.38
2018-02-01T02:21:52.601Z,17.43
2018-02-01T02:23:01.284Z,17.41
2018-02-01T02:24:09.966Z,17.36
2018-02-01T02:25:18.646Z,17.34
2018-02-01T02:26:28.126Z,17.37
2018-02-01T02:27:36.805Z,17.36
2018-02-01T02:28:46.023Z,17.4
2018-02-01T02:29:54.703Z,17.4
2018-02-01T02:31:03.663Z,17.37
2018-02-01T02:32:12.884Z,17.34
2018-02-01T02:33:22.101Z,17.33
2018-02-01T02:34:30.783Z,17.37
2018-02-01T02:35:40.001Z,17.37
2018-02-01T02:36:48.681Z,17.33
2018-02-01T02:37:57.634Z,17.34
2018-02-01T02:39:06.848Z,17.37
2018-02-01T02:40:15.799Z,17.41
2018-02-01T02:41:24.754Z,17.31
2018-02-01T02:42:33.704Z,17.28
2018-02-01T02:43:42.922Z,17.36
2018-02-01T02:44:51.872Z,17.37
2018-02-01T02:46:01.090Z,17.38
2018-02-01T02:47:09.775Z,17.31
2018-02-01T02:48:18.724Z,17.36
2018-02-01T02:49:27.410Z,17.31
2018-02-01T02:50:36.363Z,17.33
2018-02-01T02:51:45.044Z,17.34
2018-02-01T02:52:53.990Z,17.31
2018-02-01T02:54:03.221Z,17.37
2018-02-01T02:55:12.434Z,17.36
2018-02-01T02:56:21.652Z,17.33
2018-02-01T02:57:30.601Z,17.3
2018-02-01T02:58:39.822Z,17.34
2018-02-01T02:59:48.504Z,17.34
2018-02-01T03:00:57.720Z,17.31
2018-02-01T03:02:06.934Z,17.3
2018-02-01T03:03:15.615Z,17.3
2018-02-01T03:04:24.830Z,17.36
2018-02-01T03:05:33.514Z,17.31
2018-02-01T03:06:42.479Z,17.31
2018-02-01T03:07:51.183Z,17.34
2018-02-01T03:08:59.884Z,17.34
2018-02-01T03:10:09.389Z,17.28
2018-02-01T03:11:18.367Z,17.28
2018-02-01T03:12:27.876Z,17.36
2018-02-01T03:13:36.851Z,17.28
2018-02-01T03:14:45.823Z,17.26
2018-02-01T03:15:54.804Z,17.23
2018-02-01T03:17:03.507Z,17.31
2018-02-01T03:18:12.214Z,17.31
2018-02-01T03:19:20.916Z,17.25
2018-02-01T03:20:29.883Z,17.33
2018-02-01T03:21:39.125Z,17.33
2018-02-01T03:22:47.831Z,17.3
2018-02-01T03:23:56.799Z,17.26
2018-02-01T03:25:05.775Z,17.26
2018-02-01T03:26:15.018Z,17.33
2018-02-01T03:27:23.719Z,17.28
2018-02-01T03:28:32.688Z,17.31
2018-02-01T03:29:41.982Z,17.18
2018-02-01T03:30:50.691Z,17.18
2018-02-01T03:31:59.934Z,17.28
2018-02-01T03:33:08.903Z,17.31
2018-02-01T03:34:17.604Z,17.28
2018-02-01T03:35:27.107Z,17.26
2018-02-01T03:36:36.351Z,17.26
2018-02-01T03:37:45.320Z,17.26
2018-02-01T03:38:54.559Z,17.25
2018-02-01T03:40:03.261Z,17.25
2018-02-01T03:41:12.230Z,17.22
2018-02-01T03:42:21.206Z,17.26
2018-02-01T03:43:30.447Z,17.3
2018-02-01T03:44:39.955Z,17.25
2018-02-01T03:45:48.938Z,17.3
2018-02-01T03:46:57.629Z,17.23
2018-02-01T03:48:06.332Z,17.25
2018-02-01T03:49:15.301Z,17.25
2018-02-01T03:50:24.004Z,17.28
2018-02-01T03:51:32.981Z,17.25
2018-02-01T03:52:41.685Z,17.28
2018-02-01T03:53:50.663Z,17.33
2018-02-01T03:55:00.170Z,17.28
2018-02-01T03:56:09.408Z,17.23
2018-02-01T03:57:18.644Z,17.22
2018-02-01T03:58:27.349Z,17.26
2018-02-01T03:59:36.054Z,17.31
2018-02-01T04:00:45.346Z,17.26
2018-02-01T04:01:54.048Z,17.23
2018-02-01T04:03:03.289Z,17.19
2018-02-01T04:04:13.327Z,17.3
2018-02-01T04:05:22.562Z,17.19
2018-02-01T04:06:31.533Z,17.28
2018-02-01T04:07:40.771Z,17.3
2018-02-01T04:08:49.741Z,17.22
2018-02-01T04:09:58.761Z,17.18
2018-02-01T04:11:07.467Z,17.18
2018-02-01T04:12:16.715Z,17.18
2018-02-01T04:13:25.421Z,17.21
2018-02-01T04:14:34.394Z,17.28
2018-02-01T04:15:43.366Z,17.21
2018-02-01T04:16:52.335Z,17.21
2018-02-01T04:18:01.306Z,17.19
2018-02-01T04:19:10.279Z,17.18
2018-02-01T04:20:19.517Z,17.19
2018-02-01T04:21:28.219Z,17.18
2018-02-01T04:22:37.456Z,17.22
2018-02-01T04:23:46.426Z,17.26
2018-02-01T04:24:55.132Z,17.21
2018-02-01T04:26:04.641Z,17.15
2018-02-01T04:27:14.148Z,17.15
2018-02-01T04:28:22.848Z,17.15
2018-02-01T04:29:32.085Z,17.18
2018-02-01T04:30:41.331Z,17.19
2018-02-01T04:31:50.570Z,17.19
2018-02-01T04:32:59.809Z,17.22
2018-02-01T04:34:08.783Z,17.22
2018-02-01T04:35:18.556Z,17.18
2018-02-01T04:36:27.525Z,17.16
2018-02-01T04:37:36.495Z,17.15
2018-02-01T04:38:45.195Z,17.16
2018-02-01T04:39:53.896Z,17.18
2018-02-01T04:41:02.870Z,17.22
2018-02-01T04:42:12.641Z,17.15
2018-02-01T04:43:21.607Z,17.18
2018-02-01T04:44:30.578Z,17.18
2018-02-01T04:45:39.551Z,17.22
2018-02-01T04:46:48.787Z,17.18
2018-02-01T04:47:57.490Z,17.18
2018-02-01T04:49:06.460Z,17.08
2018-02-01T04:50:15.441Z,17.18
2018-02-01T04:51:24.145Z,17.14
2018-02-01T04:52:33.111Z,17.14
2018-02-01T04:53:42.084Z,17.11
2018-02-01T04:54:51.054Z,17.14
2018-02-01T04:55:59.760Z,17.07
2018-02-01T04:57:08.465Z,17.07
2018-02-01T04:58:17.706Z,17.04
2018-02-01T04:59:26.674Z,17.15
2018-02-01T05:00:35.380Z,17.15
2018-02-01T05:01:44.352Z,17.08
2018-02-01T05:02:53.057Z,17.15
2018-02-01T05:04:02.025Z,17.12
2018-02-01T05:05:10.995Z,17.15
2018-02-01T05:06:19.699Z,17.06
2018-02-01T05:07:28.403Z,17.16
2018-02-01T05:08:37.640Z,17.14
2018-02-01T05:09:46.610Z,17.06
2018-02-01T05:10:55.581Z,17.11
2018-02-01T05:12:04.292Z,17.14
2018-02-01T05:13:12.991Z,17.11
2018-02-01T05:14:22.234Z,17.14
2018-02-01T05:15:31.474Z,17.12
2018-02-01T05:16:40.982Z,17.12
2018-02-01T05:17:49.955Z,17.11
2018-02-01T05:18:58.655Z,17.07
2018-02-01T05:20:07.358Z,17.14
2018-02-01T05:21:16.067Z,17.12
2018-02-01T05:22:25.026Z,17.15
2018-02-01T05:23:33.731Z,17.15
2018-02-01T05:24:42.439Z,17.12
2018-02-01T05:25:51.682Z,17.12
2018-02-01T05:27:00.653Z,17.21
2018-02-01T05:28:09.354Z,17.18
2018-02-01T05:29:18.323Z,17.16
2018-02-01T05:30:27.296Z,17.12
2018-02-01T05:31:36.533Z,17.06
2018-02-01T05:32:45.507Z,17.12
2018-02-01T05:33:54.473Z,17.14
2018-02-01T05:35:03.978Z,17.06
2018-02-01T05:36:12.953Z,17.06
2018-02-01T05:37:21.924Z,17.11
2018-02-01T05:38:30.895Z,17.11
2018-02-01T05:39:39.600Z,17.06
2018-02-01T05:40:48.569Z,17.11
2018-02-01T05:41:57.537Z,17.11
2018-02-01T05:43:06.509Z,17.14
2018-02-01T05:44:15.747Z,17.16
2018-02-01T05:45:24.983Z,17.14
2018-02-01T05:46:33.954Z,17.07
2018-02-01T05:47:42.927Z,17.15
2018-02-01T05:48:52.162Z,17.11
2018-02-01T05:50:01.400Z,17.16
2018-02-01T05:51:10.100Z,17.14
2018-02-01T05:52:19.338Z,17.07
2018-02-01T05:53:28.581Z,17.08
2018-02-01T05:54:37.554Z,17.07
2018-02-01T05:55:46.523Z,17.12
2018-02-01T05:56:55.498Z,17.16
2018-02-01T05:58:04.201Z,17.08
2018-02-01T05:59:13.171Z,17.11
2018-02-01T06:00:22.138Z,17.19
2018-02-01T06:01:30.846Z,17.14
2018-02-01T06:02:40.083Z,17.14
2018-02-01T06:03:49.055Z,17.16
2018-02-01T06:04:58.029Z,17.08
2018-02-01T06:06:07.268Z,17.06
2018-02-01T06:07:16.243Z,17.01
2018-02-01T06:08:25.747Z,17.12
2018-02-01T06:09:34.725Z,17.12
2018-02-01T06:10:43.985Z,17.11
2018-02-01T06:11:53.753Z,17.14
2018-02-01T06:13:02.458Z,17.18
2018-02-01T06:14:11.427Z,17.15
2018-02-01T06:15:20.396Z,17.14
2018-02-01T06:16:29.100Z,17.12
2018-02-01T06:17:38.071Z,17.18
2018-02-01T06:18:46.774Z,17.15
2018-02-01T06:19:55.746Z,17.04
2018-02-01T06:21:04.981Z,17.08
2018-02-01T06:22:14.217Z,17.07
2018-02-01T06:23:23.188Z,17.11
2018-02-01T06:24:31.894Z,17.12
2018-02-01T06:25:40.595Z,17.14
2018-02-01T06:26:50.105Z,17.08
2018-02-01T06:27:59.071Z,17.14
2018-02-01T06:29:08.045Z,17.14
2018-02-01T06:30:17.285Z,17.12
2018-02-01T06:31:26.255Z,17.15
2018-02-01T06:32:35.764Z,17.08
2018-02-01T06:33:45.267Z,17.12
2018-02-01T06:34:54.548Z,17.08
2018-02-01T06:36:03.522Z,17.11
2018-02-01T06:37:12.762Z,17.15
2018-02-01T06:38:21.737Z,17.03
2018-02-01T06:39:30.704Z,17.11
2018-02-01T06:40:39.675Z,17.18
2018-02-01T06:41:48.379Z,17.08
2018-02-01T06:42:57.083Z,17.04
2018-02-01T06:44:06.059Z,17.18
2018-02-01T06:45:14.756Z,17.08
2018-02-01T06:46:23.727Z,17.14
2018-02-01T06:47:32.693Z,17.14
2018-02-01T06:48:41.395Z,17.19
2018-02-01T06:49:50.630Z,17.14
2018-02-01T06:50:59.870Z,17.14
2018-02-01T06:52:08.841Z,17.12
2018-02-01T06:53:17.541Z,17.15
2018-02-01T06:54:26.779Z,17.14
2018-02-01T06:55:35.747Z,17.11
2018-02-01T06:56:44.452Z,17.12
2018-02-01T06:57:53.687Z,17.07
2018-02-01T06:59:03.464Z,17.07
2018-02-01T07:00:12.970Z,17.07
2018-02-01T07:01:22.247Z,17.18
2018-02-01T07:02:31.531Z,17.14
2018-02-01T07:03:40.500Z,17.16
2018-02-01T07:04:49.204Z,17.12
2018-02-01T07:05:58.445Z,17.11
2018-02-01T07:07:07.423Z,17.22
2018-02-01T07:08:16.665Z,17.16
2018-02-01T07:09:25.904Z,17.08
2018-02-01T07:10:34.618Z,17.11
2018-02-01T07:11:43.614Z,17.14
2018-02-01T07:12:53.118Z,17.07
2018-02-01T07:14:02.628Z,17.14
2018-02-01T07:15:11.332Z,17.11
2018-02-01T07:16:20.307Z,17.15
2018-02-01T07:17:29.279Z,17.11
2018-02-01T07:18:37.984Z,17.08
2018-02-01T07:19:47.768Z,17.11
2018-02-01T07:20:56.472Z,17.11
2018-02-01T07:22:05.499Z,17.14
2018-02-01T07:23:14.444Z,17.14
2018-02-01T07:24:23.415Z,17.18
2018-02-01T07:25:32.389Z,17.14
2018-02-01T07:26:41.627Z,17.16
2018-02-01T07:27:50.330Z,17.15
2018-02-01T07:28:59.301Z,17.07
2018-02-01T07:30:08.007Z,17.08
2018-02-01T07:31:17.241Z,17.14
2018-02-01T07:32:26.219Z,17.16
2018-02-01T07:33:35.727Z,17.12
2018-02-01T07:34:44.702Z,17.11
2018-02-01T07:35:53.673Z,17.12
2018-02-01T07:37:02.915Z,17.14
2018-02-01T07:38:11.888Z,17.12
2018-02-01T07:39:20.590Z,17.07
2018-02-01T07:40:29.835Z,17.16
2018-02-01T07:41:39.342Z,17.11
2018-02-01T07:42:48.042Z,17.11
2018-02-01T07:43:57.017Z,17.16
2018-02-01T07:45:06.303Z,17.19
2018-02-01T07:46:15.540Z,17.04
2018-02-01T07:47:24.512Z,17.07
2018-02-01T07:48:33.482Z,17.15
2018-02-01T07:49:43.250Z,17.14
2018-02-01T07:50:52.488Z,17.16
2018-02-01T07:52:01.729Z,17.14
2018-02-01T07:53:10.702Z,17.11
2018-02-01T07:54:19.671Z,17.11
2018-02-01T07:55:28.373Z,17.18
2018-02-01T07:56:37.350Z,17.15
2018-02-01T07:57:46.585Z,17.08
2018-02-01T07:58:55.292Z,17.11
2018-02-01T08:00:04.266Z,17.15
2018-02-01T08:01:14.042Z,17.04
2018-02-01T08:02:23.011Z,17.15
2018-02-01T08:03:32.251Z,17.06
2018-02-01T08:04:41.221Z,17.19
2018-02-01T08:05:50.195Z,17.11
2018-02-01T08:06:59.432Z,17.14
2018-02-01T08:08:08.137Z,17.07
2018-02-01T08:09:17.107Z,17.19
2018-02-01T08:10:26.357Z,17.08
2018-02-01T08:11:35.595Z,17.14
2018-02-01T08:12:44.570Z,17.14
2018-02-01T08:13:53.804Z,17.11
2018-02-01T08:15:02.508Z,17.04
2018-02-01T08:16:11.211Z,17.12
2018-02-01T08:17:20.183Z,17.15
2018-02-01T08:18:29.155Z,17.18
2018-02-01T08:19:38.129Z,17.23
2018-02-01T08:20:46.833Z,17.15
2018-02-01T08:21:55.536Z,17.18
2018-02-01T08:23:04.238Z,17.18
2018-02-01T08:24:13.208Z,17.19
2018-02-01T08:25:22.178Z,17.15
2018-02-01T08:26:31.686Z,17.18
2018-02-01T08:27:40.389Z,17.19
2018-02-01T08:28:49.365Z,17.15
2018-02-01T08:29:58.068Z,17.22
2018-02-01T08:31:07.575Z,17.15
2018-02-01T08:32:17.079Z,17.19
2018-02-01T08:33:26.318Z,17.18
2018-02-01T08:34:35.289Z,17.11
2018-02-01T08:35:44.001Z,17.15
2018-02-01T08:36:53.535Z,17.22
2018-02-01T08:38:02.776Z,17.07
2018-02-01T08:39:11.747Z,17.18
2018-02-01T08:40:20.987Z,17.15
2018-02-01T08:41:29.958Z,17.08
2018-02-01T08:42:38.653Z,17.15
2018-02-01T08:43:48.164Z,17.15
2018-02-01T08:44:56.865Z,17.22
2018-02-01T08:46:06.103Z,17.06
2018-02-01T08:47:14.800Z,17.16
2018-02-01T08:48:24.048Z,17.21
2018-02-01T08:49:33.013Z,17.12
2018-02-01T08:50:41.716Z,17.21
2018-02-01T08:51:50.694Z,17.06
2018-02-01T08:52:59.665Z,17.08
2018-02-01T08:54:08.641Z,17.06
2018-02-01T08:55:17.681Z,17.12
2018-02-01T08:56:26.925Z,17.11
2018-02-01T08:57:36.159Z,17.21
2018-02-01T08:58:44.864Z,17.12
2018-02-01T08:59:53.565Z,17.07
2018-02-01T09:01:02.534Z,17.06
2018-02-01T09:02:11.783Z,17.18
2018-02-01T09:03:20.759Z,17.23
2018-02-01T09:04:29.728Z,17.18
2018-02-01T09:05:38.697Z,17.19
2018-02-01T09:06:47.405Z,17.16
2018-02-01T09:07:56.648Z,17.23
2018-02-01T09:09:05.348Z,17.18
2018-02-01T09:10:14.049Z,17.15
2018-02-01T09:11:23.289Z,17.15
2018-02-01T09:12:32.261Z,17.15
2018-02-01T09:13:41.239Z,17.15
2018-02-01T09:14:49.944Z,17.23
2018-02-01T09:15:59.179Z,17.15
2018-02-01T09:17:08.149Z,17.07
2018-02-01T09:18:17.119Z,17.11
2018-02-01T09:19:26.106Z,16.97
2018-02-01T09:20:35.608Z,16.94
2018-02-01T09:21:44.583Z,16.97
2018-02-01T09:22:53.558Z,16.98
2018-02-01T09:24:02.795Z,17.11
2018-02-01T09:25:12.030Z,17.12
2018-02-01T09:26:21.273Z,17.04
2018-02-01T09:27:29.982Z,17.12
2018-02-01T09:28:38.682Z,17.12
2018-02-01T09:29:47.921Z,17.14
2018-02-01T09:30:57.158Z,17.07
2018-02-01T09:32:06.133Z,17.11
2018-02-01T09:33:15.377Z,17.14
2018-02-01T09:34:24.352Z,17.06
2018-02-01T09:35:33.058Z,17.07
2018-02-01T09:36:42.057Z,17.12
2018-02-01T09:37:50.897Z,17.18
2018-02-01T09:38:59.872Z,17.18
2018-02-01T09:40:08.851Z,17.15
2018-02-01T09:41:17.823Z,17.18
2018-02-01T09:42:26.529Z,17.18
2018-02-01T09:43:35.241Z,17.18
2018-02-01T09:44:44.484Z,17.18
2018-02-01T09:45:53.459Z,17.19
2018-02-01T09:47:02.702Z,17.15
2018-02-01T09:48:11.407Z,17.19
2018-02-01T09:49:20.375Z,17.19
2018-02-01T09:50:29.345Z,17.19
2018-02-01T09:51:38.325Z,17.18
2018-02-01T09:52:47.822Z,17.18
2018-02-01T09:53:56.524Z,17.15
2018-02-01T09:55:05.770Z,17.18
2018-02-01T09:56:14.747Z,17.15
2018-02-01T09:57:23.985Z,17.16
2018-02-01T09:58:32.685Z,17.18
2018-02-01T09:59:41.388Z,17.21
2018-02-01T10:00:50.361Z,17.18
2018-02-01T10:01:59.069Z,17.14
2018-02-01T10:03:07.776Z,17.18
2018-02-01T10:04:17.020Z,17.21
2018-02-01T10:05:25.723Z,17.23
2018-02-01T10:06:34.695Z,17.21
2018-02-01T10:07:43.666Z,17.3
2018-02-01T10:08:52.910Z,17.28
2018-02-01T10:10:01.886Z,17.22
2018-02-01T10:11:11.656Z,17.21
2018-02-01T10:12:20.623Z,17.23
2018-02-01T10:13:29.323Z,17.22
2018-02-01T10:14:38.028Z,17.28
2018-02-01T10:15:47.001Z,17.28
2018-02-01T10:16:55.700Z,17.22
2018-02-01T10:18:04.669Z,17.31
2018-02-01T10:19:13.638Z,17.3
2018-02-01T10:20:23.144Z,17.31
2018-02-01T10:21:32.388Z,17.3
2018-02-01T10:22:41.361Z,17.25
2018-02-01T10:23:50.069Z,17.3
2018-02-01T10:24:59.304Z,17.22
2018-02-01T10:26:08.545Z,17.26
2018-02-01T10:27:17.514Z,17.3
2018-02-01T10:28:26.757Z,17.26
2018-02-01T10:29:35.995Z,17.31
2018-02-01T10:30:45.237Z,17.19
2018-02-01T10:31:54.740Z,17.21
2018-02-01T10:33:03.717Z,17.19
2018-02-01T10:34:13.228Z,17.25
2018-02-01T10:35:21.930Z,17.21
2018-02-01T10:36:31.170Z,17.26
2018-02-01T10:37:39.876Z,17.31
2018-02-01T10:38:48.849Z,17.23
2018-02-01T10:39:57.820Z,17.18
2018-02-01T10:41:06.798Z,17.23
2018-02-01T10:42:15.780Z,17.14
2018-02-01T10:43:24.746Z,17.26
2018-02-01T10:44:33.988Z,17.15
2018-02-01T10:45:42.963Z,17.22
2018-02-01T10:46:52.470Z,17.06
2018-02-01T10:48:01.174Z,17.16
2018-02-01T10:49:10.688Z,17.07
2018-02-01T10:50:19.656Z,17.18
2018-02-01T10:51:28.630Z,17.04
2018-02-01T10:52:37.600Z,17.11
2018-02-01T10:53:46.838Z,17.06
2018-02-01T10:54:56.078Z,17.07
2018-02-01T10:56:05.316Z,17.14
2018-02-01T10:57:14.287Z,17.08
2018-02-01T10:58:23.257Z,17.16
2018-02-01T10:59:32.228Z,17.11
2018-02-01T11:00:41.737Z,17.08
2018-02-01T11:01:50.442Z,17.08
2018-02-01T11:02:59.676Z,17.08
2018-02-01T11:04:08.641Z,17.08
2018-02-01T11:05:17.346Z,17.11
2018-02-01T11:06:26.317Z,17.08
2018-02-01T11:07:35.289Z,17.07
2018-02-01T11:08:44.260Z,17.14
2018-02-01T11:09:53.233Z,17.11
2018-02-01T11:11:01.941Z,17.14
2018-02-01T11:12:10.646Z,17.08
2018-02-01T11:13:19.927Z,17.08
2018-02-01T11:14:29.970Z,17.06
2018-02-01T11:15:39.209Z,17.01
2018-02-01T11:16:48.719Z,17.04
2018-02-01T11:17:57.964Z,17
2018-02-01T11:19:07.265Z,17.03
2018-02-01T11:20:16.237Z,17.04
2018-02-01T11:21:25.208Z,17.04
2018-02-01T11:22:34.187Z,17.03
2018-02-01T11:23:43.168Z,17.08
2018-02-01T11:24:52.682Z,17.06
2018-02-01T11:26:02.471Z,17.14
2018-02-01T11:27:11.709Z,17.08
2018-02-01T11:28:20.951Z,17.08
2018-02-01T11:29:29.655Z,17.08
2018-02-01T11:30:38.632Z,17.07
2018-02-01T11:31:47.335Z,17.07
2018-02-01T11:32:56.306Z,17.11
2018-02-01T11:34:06.094Z,17.08
2018-02-01T11:35:15.068Z,17.11
2018-02-01T11:36:23.771Z,17.14
2018-02-01T11:37:32.741Z,17.15
2018-02-01T11:38:41.717Z,17.06
2018-02-01T11:39:50.958Z,17.07
2018-02-01T11:40:59.928Z,17.14
2018-02-01T11:42:09.172Z,17.16
2018-02-01T11:43:17.876Z,17.19
2018-02-01T11:44:26.853Z,17.08
2018-02-01T11:45:35.827Z,17.22
2018-02-01T11:46:44.801Z,17.22
2018-02-01T11:47:53.780Z,17.18
2018-02-01T11:49:03.023Z,17.18
2018-02-01T11:50:12.526Z,17.3
2018-02-01T11:51:21.229Z,17.19
2018-02-01T11:52:30.200Z,17.19
2018-02-01T11:53:39.436Z,17.22
2018-02-01T11:54:48.673Z,17.15
2018-02-01T11:55:57.912Z,17.28
2018-02-01T11:57:07.155Z,17.22
2018-02-01T11:58:16.391Z,17.22
2018-02-01T11:59:25.631Z,17.16
2018-02-01T12:00:35.140Z,17.31
2018-02-01T12:01:44.120Z,17.15
2018-02-01T12:02:53.356Z,17.23
2018-02-01T12:04:02.596Z,17.31
2018-02-01T12:05:11.571Z,17.26
2018-02-01T12:06:20.809Z,17.22
2018-02-01T12:07:29.781Z,17.23
2018-02-01T12:08:38.483Z,17.23
2018-02-01T12:09:47.458Z,17.18
2018-02-01T12:10:56.691Z,17.22
2018-02-01T12:12:05.666Z,17.21
2018-02-01T12:13:14.369Z,17.18
2018-02-01T12:14:23.608Z,17.22
2018-02-01T12:15:32.846Z,17.25
2018-02-01T12:16:41.815Z,17.25
2018-02-01T12:17:50.788Z,17.19
2018-02-01T12:18:59.757Z,17.31
2018-02-01T12:20:08.728Z,17.26
2018-02-01T12:21:17.965Z,17.25
2018-02-01T12:22:26.669Z,17.31
2018-02-01T12:23:35.908Z,17.3
2018-02-01T12:24:45.420Z,17.3
2018-02-01T12:25:54.397Z,17.33
2018-02-01T12:27:03.367Z,17.21
2018-02-01T12:28:12.335Z,17.16
2018-02-01T12:29:21.575Z,17.14
2018-02-01T12:30:30.809Z,17.28
2018-02-01T12:31:40.047Z,17.25
2018-02-01T12:32:48.750Z,17.31
2018-02-01T12:33:57.456Z,17.33
2018-02-01T12:35:06.699Z,17.28
2018-02-01T12:36:15.404Z,17.36
2018-02-01T12:37:24.110Z,17.41
2018-02-01T12:38:33.345Z,17.36
2018-02-01T12:39:42.048Z,17.44
2018-02-01T12:40:51.284Z,17.46
2018-02-01T12:42:00.518Z,17.51
2018-02-01T12:43:09.491Z,17.41
2018-02-01T12:44:18.464Z,17.46
2018-02-01T12:45:27.171Z,17.41
2018-02-01T12:46:36.717Z,17.4
2018-02-01T12:47:45.690Z,17.43
2018-02-01T12:48:54.392Z,17.46
2018-02-01T12:50:03.096Z,17.41
2018-02-01T12:51:12.066Z,17.52
2018-02-01T12:52:21.036Z,17.4
2018-02-01T12:53:30.338Z,17.49
2018-02-01T12:54:39.574Z,17.52
2018-02-01T12:55:49.349Z,17.51
2018-02-01T12:56:58.319Z,17.52
2018-02-01T12:58:07.024Z,17.51
2018-02-01T12:59:15.728Z,17.54
2018-02-01T13:00:24.708Z,17.54
2018-02-01T13:01:33.679Z,17.58
2018-02-01T13:02:42.380Z,17.52
2018-02-01T13:03:51.350Z,17.52
2018-02-01T13:05:00.315Z,17.63
2018-02-01T13:06:09.588Z,17.58
2018-02-01T13:07:18.292Z,17.58
2018-02-01T13:08:27.529Z,17.58
2018-02-01T13:09:36.765Z,17.58
2018-02-01T13:10:45.468Z,17.66
2018-02-01T13:11:54.701Z,17.62
2018-02-01T13:13:03.672Z,17.62
2018-02-01T13:14:12.910Z,17.56
2018-02-01T13:15:22.153Z,17.63
2018-02-01T13:16:30.854Z,17.66
2018-02-01T13:17:39.556Z,17.59
2018-02-01T13:18:48.258Z,17.71
2018-02-01T13:19:56.958Z,17.58
2018-02-01T13:21:05.661Z,17.59
2018-02-01T13:22:14.635Z,17.66
2018-02-01T13:23:23.608Z,17.59
2018-02-01T13:24:32.582Z,17.66
2018-02-01T13:25:41.820Z,17.62
2018-02-01T13:26:51.061Z,17.74
2018-02-01T13:28:00.293Z,17.66
2018-02-01T13:29:09.530Z,17.7
2018-02-01T13:30:18.771Z,17.77
2018-02-01T13:31:27.472Z,17.71
2018-02-01T13:32:36.712Z,17.62
2018-02-01T13:33:45.411Z,17.71
2018-02-01T13:34:54.381Z,17.71
2018-02-01T13:36:03.349Z,17.74
2018-02-01T13:37:12.052Z,17.71
2018-02-01T13:38:21.288Z,17.66
2018-02-01T13:39:30.261Z,17.71
2018-02-01T13:40:39.241Z,17.7
2018-02-01T13:41:48.206Z,17.58
2018-02-01T13:42:57.192Z,17.72
2018-02-01T13:44:05.895Z,17.72
2018-02-01T13:45:14.866Z,17.72
2018-02-01T13:46:24.372Z,17.72
2018-02-01T13:47:33.915Z,17.72
2018-02-01T13:48:42.891Z,17.77
2018-02-01T13:49:52.394Z,17.7
2018-02-01T13:51:01.367Z,17.72
2018-02-01T13:52:10.069Z,17.72
2018-02-01T13:53:19.312Z,17.66
2018-02-01T13:54:28.018Z,17.75
2018-02-01T13:55:36.992Z,17.77
2018-02-01T13:56:46.280Z,17.75
2018-02-01T13:57:55.252Z,17.75
2018-02-01T13:59:04.487Z,17.72
2018-02-01T14:00:13.193Z,17.75
2018-02-01T14:01:21.896Z,17.75
2018-02-01T14:02:30.879Z,17.74
2018-02-01T14:03:39.853Z,17.79
2018-02-01T14:04:48.553Z,17.74
2018-02-01T14:05:57.259Z,17.68
2018-02-01T14:07:05.967Z,17.66
2018-02-01T14:08:14.939Z,17.62
2018-02-01T14:09:23.910Z,17.71
2018-02-01T14:10:32.885Z,17.74
2018-02-01T14:11:41.855Z,17.71
2018-02-01T14:12:50.835Z,17.72
2018-02-01T14:13:59.799Z,17.66
2018-02-01T14:15:08.766Z,17.71
2018-02-01T14:16:17.745Z,17.63
2018-02-01T14:17:26.983Z,17.71
2018-02-01T14:18:35.951Z,17.7
2018-02-01T14:19:45.190Z,17.59
2018-02-01T14:20:53.892Z,17.63
2018-02-01T14:22:03.130Z,17.66
2018-02-01T14:23:12.367Z,17.63
2018-02-01T14:24:21.603Z,17.59
2018-02-01T14:25:30.842Z,17.66
2018-02-01T14:26:39.814Z,17.7
2018-02-01T14:27:48.522Z,17.54
2018-02-01T14:28:57.495Z,17.74
2018-02-01T14:30:06.463Z,17.66
2018-02-01T14:31:15.705Z,17.7
2018-02-01T14:32:24.677Z,17.62
2018-02-01T14:33:33.916Z,17.55
2018-02-01T14:34:43.162Z,17.55
2018-02-01T14:35:52.134Z,17.66
2018-02-01T14:37:01.403Z,17.51
2018-02-01T14:38:10.106Z,17.59
2018-02-01T14:39:19.080Z,17.7
2018-02-01T14:40:27.786Z,17.59
2018-02-01T14:41:37.028Z,17.52
2018-02-01T14:42:45.732Z,17.66
2018-02-01T14:43:54.713Z,17.63
2018-02-01T14:45:03.406Z,17.54
2018-02-01T14:46:12.377Z,17.52
2018-02-01T14:47:21.352Z,17.55
2018-02-01T14:48:30.323Z,17.66
2018-02-01T14:49:39.025Z,17.56
2018-02-01T14:50:47.999Z,17.58